createdAt,value
2022-09-12T00:01:21.366Z,99.90
2022-09-12T00:03:57.938Z,99.90
2022-09-12T00:06:37.125Z,99.90
2022-09-12T00:09:10.084Z,99.90
2022-09-12T00:11:40.474Z,99.90
2022-09-12T00:14:12.155Z,99.90
2022-09-12T00:16:39.559Z,99.90
2022-09-12T00:36:42.662Z,99.90
2022-09-12T00:39:14.233Z,99.90
2022-09-12T00:41:42.560Z,99.90
2022-09-12T00:44:09.753Z,99.90
2022-09-12T00:46:51.345Z,99.90
2022-09-12T00:49:27.953Z,99.90
2022-09-12T00:52:20.332Z,99.90
2022-09-12T00:54:48.364Z,99.90
2022-09-12T00:57:28.850Z,99.90
2022-09-12T01:00:21.357Z,99.90
2022-09-12T01:03:13.238Z,99.90
2022-09-12T01:08:38.120Z,99.90
2022-09-12T01:11:07.663Z,99.90
2022-09-12T01:13:35.464Z,99.90
2022-09-12T01:16:06.421Z,99.90
2022-09-12T01:18:48.150Z,99.90
2022-09-12T01:24:34.280Z,99.90
2022-09-12T01:28:13.112Z,99.90
2022-09-12T01:31:01.655Z,99.90
2022-09-12T01:33:53.374Z,99.90
2022-09-12T01:36:33.758Z,99.90
2022-09-12T01:39:32.695Z,99.90
2022-09-12T01:44:58.851Z,99.90
2022-09-12T01:47:47.348Z,99.90
2022-09-12T01:50:19.270Z,99.90
2022-09-12T01:53:21.930Z,99.90
2022-09-12T01:56:12.606Z,99.90
2022-09-12T01:58:54.157Z,99.90
2022-09-12T02:01:29.986Z,99.90
2022-09-12T02:03:59.677Z,99.90
2022-09-12T02:06:48.552Z,99.90
2022-09-12T02:13:29.486Z,99.90
2022-09-12T02:16:07.234Z,99.90
2022-09-12T02:21:58.567Z,99.90
2022-09-12T02:24:34.471Z,99.90
2022-09-12T02:27:42.777Z,99.90
2022-09-12T02:33:44.510Z,99.90
2022-09-12T02:42:53.216Z,99.90
2022-09-12T02:45:23.170Z,99.90
2022-09-12T02:50:55.179Z,99.90
2022-09-12T02:53:23.560Z,99.90
2022-09-12T03:05:04.990Z,99.90
2022-09-12T03:11:08.572Z,99.90
2022-09-12T03:14:29.832Z,99.90
2022-09-12T03:17:12.569Z,99.90
2022-09-12T03:20:18.487Z,99.90
2022-09-12T03:23:00.122Z,99.90
2022-09-12T03:25:51.323Z,99.90
2022-09-12T03:28:31.502Z,99.90
2022-09-12T03:30:59.003Z,99.90
2022-09-12T03:33:29.071Z,99.90
2022-09-12T03:35:58.632Z,99.90
2022-09-12T03:38:25.431Z,99.90
2022-09-12T03:40:55.199Z,99.90
2022-09-12T03:43:38.542Z,99.90
2022-09-12T03:49:11.865Z,99.90
2022-09-12T03:51:47.451Z,99.90
2022-09-12T03:54:20.077Z,99.90
2022-09-12T04:02:44.828Z,99.90
2022-09-12T04:05:13.657Z,99.90
2022-09-12T04:08:06.554Z,99.90
2022-09-12T04:10:34.888Z,99.90
2022-09-12T04:16:40.740Z,99.90
2022-09-12T04:25:23.393Z,99.90
2022-09-12T04:33:57.600Z,99.90
2022-09-12T04:36:25.344Z,99.90
2022-09-12T04:38:58.052Z,99.90
2022-09-12T04:41:30.939Z,99.90
2022-09-12T04:47:00.787Z,99.90
2022-09-12T04:49:27.444Z,99.90
2022-09-12T04:52:21.959Z,99.90
2022-09-12T04:57:40.010Z,99.90
2022-09-12T05:00:35.868Z,99.90
2022-09-12T05:03:03.884Z,99.90
2022-09-12T05:05:38.141Z,99.90
2022-09-12T05:08:20.056Z,99.90
2022-09-12T05:11:21.519Z,99.90
2022-09-12T05:14:18.264Z,99.90
2022-09-12T05:16:49.214Z,99.90
2022-09-12T05:19:29.370Z,99.90
2022-09-12T05:22:02.170Z,99.90
2022-09-12T05:24:29.949Z,99.90
2022-09-12T05:27:03.622Z,99.90
2022-09-12T05:29:31.731Z,99.90
2022-09-12T05:32:03.078Z,99.90
2022-09-12T05:34:33.343Z,99.90
2022-09-12T05:37:00.236Z,99.90
2022-09-12T05:39:28.248Z,99.90
2022-09-12T05:41:55.649Z,99.90
2022-09-12T05:44:25.100Z,99.90
2022-09-12T05:47:01.224Z,99.90
2022-09-12T05:55:22.369Z,99.90
2022-09-12T05:58:00.948Z,99.90
2022-09-12T06:07:20.341Z,99.90
2022-09-12T06:09:46.973Z,99.90
2022-09-12T06:12:28.732Z,99.90
2022-09-12T06:14:56.355Z,99.90
2022-09-12T06:17:38.633Z,99.90
2022-09-12T06:23:36.942Z,99.90
2022-09-12T06:26:07.850Z,99.90
2022-09-12T06:28:38.138Z,99.90
2022-09-12T06:37:10.994Z,99.90
2022-09-12T06:39:44.884Z,99.90
2022-09-12T06:42:15.933Z,99.90
2022-09-12T06:45:10.789Z,99.90
2022-09-12T06:48:28.903Z,99.90
2022-09-12T06:51:01.946Z,99.90
2022-09-12T06:53:29.891Z,99.90
2022-09-12T06:58:57.645Z,99.90
2022-09-12T07:04:36.420Z,99.90
2022-09-12T07:07:05.697Z,99.90
2022-09-12T07:09:35.470Z,99.90
2022-09-12T07:12:05.985Z,99.90
2022-09-12T07:14:38.168Z,99.90
2022-09-12T07:17:06.042Z,99.90
2022-09-12T07:19:32.949Z,99.90
2022-09-12T07:22:01.189Z,99.90
2022-09-12T07:24:28.480Z,99.90
2022-09-12T07:29:49.771Z,99.90
2022-09-12T07:36:36.086Z,99.90
2022-09-12T07:39:11.519Z,99.90
2022-09-12T07:42:14.843Z,99.90
2022-09-12T07:44:50.207Z,99.90
2022-09-12T07:47:18.492Z,99.90
2022-09-12T07:50:04.199Z,99.90
2022-09-12T07:52:30.987Z,99.90
2022-09-12T07:54:58.010Z,99.90
2022-09-12T07:57:27.735Z,99.90
2022-09-12T07:59:58.394Z,99.90
2022-09-12T08:02:26.490Z,99.90
2022-09-12T08:05:27.608Z,99.90
2022-09-12T08:07:57.735Z,99.90
2022-09-12T08:10:47.885Z,99.90
2022-09-12T08:13:20.004Z,99.90
2022-09-12T08:16:14.540Z,99.90
2022-09-12T08:24:29.295Z,99.90
2022-09-12T08:26:56.658Z,99.90
2022-09-12T08:29:26.281Z,99.90
2022-09-12T08:32:22.877Z,99.90
2022-09-12T08:34:52.482Z,99.90
2022-09-12T08:37:51.056Z,99.90
2022-09-12T08:40:24.375Z,99.90
2022-09-12T08:48:37.525Z,99.90
2022-09-12T08:51:13.330Z,99.90
2022-09-12T08:59:08.123Z,99.90
2022-09-12T09:01:42.555Z,99.90
2022-09-12T09:05:17.459Z,99.90
2022-09-12T09:08:11.143Z,99.90
2022-09-12T09:11:22.986Z,99.90
2022-09-12T09:14:53.218Z,99.90
2022-09-12T09:17:42.534Z,99.90
2022-09-12T09:24:20.811Z,99.90
2022-09-12T09:27:39.876Z,99.90
2022-09-12T09:30:26.006Z,99.90
2022-09-12T09:33:32.766Z,99.90
2022-09-12T09:36:47.261Z,99.90
2022-09-12T09:39:42.826Z,99.90
2022-09-12T09:42:53.422Z,99.90
2022-09-12T09:45:27.050Z,99.90
2022-09-12T09:58:33.006Z,99.90
2022-09-12T10:01:05.563Z,99.90
2022-09-12T10:06:54.138Z,99.90
2022-09-12T10:09:37.036Z,99.90
2022-09-12T10:15:17.456Z,99.90
2022-09-12T10:17:49.371Z,99.90
2022-09-12T10:20:44.478Z,99.90
2022-09-12T10:23:28.787Z,99.90
2022-09-12T10:25:56.853Z,99.90
2022-09-12T10:28:39.056Z,99.40
2022-09-12T10:31:11.296Z,98.80
2022-09-12T10:37:39.174Z,98.70
2022-09-12T10:40:19.952Z,99.90
2022-09-12T10:42:49.372Z,98.50
2022-09-12T10:48:26.560Z,97.90
2022-09-12T10:50:58.767Z,94.60
2022-09-12T11:06:05.387Z,90.20
2022-09-12T11:14:56.314Z,88.50
2022-09-12T11:18:00.072Z,87.30
2022-09-12T11:24:01.584Z,90.10
2022-09-12T11:29:53.105Z,85.50
2022-09-12T11:33:10.621Z,85.70
2022-09-12T11:35:55.148Z,84.50
2022-09-12T11:38:53.961Z,81.60
2022-09-12T11:41:36.507Z,80.00
2022-09-12T11:44:14.982Z,82.10
2022-09-12T11:49:41.403Z,82.10
2022-09-12T11:58:30.578Z,78.90
2022-09-12T12:01:16.900Z,75.30
2022-09-12T12:04:25.122Z,77.60
2022-09-12T12:07:08.300Z,76.00
2022-09-12T12:10:32.027Z,72.70
2022-09-12T12:19:36.990Z,69.80
2022-09-12T12:22:24.083Z,71.30
2022-09-12T12:25:21.905Z,72.80
2022-09-12T12:28:21.048Z,70.20
2022-09-12T12:30:55.416Z,70.20
2022-09-12T12:33:59.521Z,69.60
2022-09-12T12:36:37.822Z,70.30
2022-09-12T12:39:48.554Z,71.00
2022-09-12T12:42:36.221Z,68.00
2022-09-12T12:45:17.855Z,68.60
2022-09-12T12:48:17.128Z,69.00
2022-09-12T12:50:45.294Z,69.20
2022-09-12T12:53:41.157Z,67.30
2022-09-12T12:57:01.131Z,66.00
2022-09-12T12:59:29.795Z,67.70
2022-09-12T13:02:05.097Z,65.90
2022-09-12T13:05:20.383Z,66.50
2022-09-12T13:08:25.826Z,64.80
2022-09-12T13:11:58.444Z,66.10
2022-09-12T13:14:42.426Z,66.10
2022-09-12T13:18:04.123Z,66.40
2022-09-12T13:21:25.167Z,63.90
2022-09-12T13:24:25.195Z,64.90
2022-09-12T13:26:57.060Z,63.40
2022-09-12T13:32:26.512Z,63.70
2022-09-12T13:35:19.431Z,60.20
2022-09-12T13:38:11.273Z,61.60
2022-09-12T13:41:07.693Z,60.00
2022-09-12T13:43:46.774Z,60.90
2022-09-12T13:46:44.211Z,58.60
2022-09-12T13:49:39.424Z,59.60
2022-09-12T13:52:22.515Z,61.00
2022-09-12T13:54:57.420Z,60.30
2022-09-12T13:58:33.918Z,58.10
2022-09-12T14:01:11.228Z,56.20
2022-09-12T14:04:20.273Z,55.10
2022-09-12T14:06:52.436Z,57.10
2022-09-12T14:09:38.050Z,59.50
2022-09-12T14:12:31.665Z,58.10
2022-09-12T14:15:01.695Z,60.60
2022-09-12T14:18:00.647Z,59.50
2022-09-12T14:20:38.728Z,58.10
2022-09-12T14:23:28.463Z,58.10
2022-09-12T14:26:01.772Z,57.80
2022-09-12T14:28:57.860Z,58.10
2022-09-12T14:31:31.343Z,58.30
2022-09-12T14:34:30.295Z,57.20
2022-09-12T14:37:06.235Z,55.20
2022-09-12T14:40:06.535Z,55.80
2022-09-12T14:42:42.016Z,56.70
2022-09-12T14:46:08.872Z,58.00
2022-09-12T14:49:49.632Z,55.20
2022-09-12T14:52:39.348Z,55.60
2022-09-12T14:55:58.820Z,56.10
2022-09-12T14:59:17.854Z,57.50
2022-09-12T15:06:38.030Z,57.50
2022-09-12T15:09:13.449Z,59.50
2022-09-12T15:11:48.982Z,57.80
2022-09-12T15:14:21.773Z,56.20
2022-09-12T15:16:49.911Z,58.20
2022-09-12T15:19:26.814Z,55.90
2022-09-12T15:21:54.016Z,55.70
2022-09-12T15:24:23.403Z,56.70
2022-09-12T15:26:54.678Z,58.10
2022-09-12T15:29:23.134Z,58.50
2022-09-12T15:31:51.240Z,57.00
2022-09-12T15:34:21.262Z,58.00
2022-09-12T15:36:49.130Z,57.40
2022-09-12T15:39:16.938Z,58.70
2022-09-12T15:41:47.981Z,58.30
2022-09-12T15:44:19.450Z,59.60
2022-09-12T15:47:40.607Z,59.60
2022-09-12T15:50:15.623Z,58.90
2022-09-12T15:52:48.561Z,59.60
2022-09-12T15:55:22.659Z,59.20
2022-09-12T15:58:02.441Z,60.70
2022-09-12T16:01:02.438Z,60.60
2022-09-12T16:03:34.644Z,61.20
2022-09-12T16:06:03.563Z,61.40
2022-09-12T16:08:31.593Z,61.40
2022-09-12T16:11:13.676Z,62.70
2022-09-12T16:13:41.908Z,64.70
2022-09-12T16:16:58.788Z,61.90
2022-09-12T16:19:54.679Z,61.40
2022-09-12T16:22:34.542Z,61.50
2022-09-12T16:25:53.679Z,63.00
2022-09-12T16:28:24.201Z,63.20
2022-09-12T16:31:03.819Z,63.90
2022-09-12T16:33:52.916Z,65.70
2022-09-12T16:44:52.881Z,65.00
2022-09-12T16:47:23.396Z,65.00
2022-09-12T16:49:55.259Z,66.00
2022-09-12T16:52:22.128Z,65.90
2022-09-12T16:54:48.884Z,67.40
2022-09-12T16:57:16.981Z,70.50
2022-09-12T16:59:49.446Z,70.60
2022-09-12T17:02:41.696Z,71.50
2022-09-12T17:05:11.169Z,72.30
2022-09-12T17:07:51.219Z,74.50
2022-09-12T17:10:43.707Z,75.20
2022-09-12T17:13:10.453Z,78.20
2022-09-12T17:15:37.903Z,79.50
2022-09-12T17:18:06.936Z,80.70
2022-09-12T17:20:36.360Z,81.50
2022-09-12T17:23:09.644Z,81.10
2022-09-12T17:25:37.579Z,82.50
2022-09-12T17:28:11.932Z,83.30
2022-09-12T17:30:41.016Z,85.30
2022-09-12T17:33:15.710Z,86.50
2022-09-12T17:35:46.022Z,87.70
2022-09-12T17:38:17.622Z,89.10
2022-09-12T17:46:30.671Z,90.10
2022-09-12T17:49:24.789Z,91.20
2022-09-12T17:55:38.878Z,93.10
2022-09-12T17:58:07.162Z,94.00
2022-09-12T18:00:53.639Z,95.00
2022-09-12T18:03:28.711Z,96.10
2022-09-12T18:05:58.336Z,97.80
2022-09-12T18:08:25.085Z,99.40
2022-09-12T18:11:18.154Z,99.90
2022-09-12T18:13:49.114Z,99.90
2022-09-12T18:16:20.557Z,99.90
2022-09-12T18:18:50.306Z,99.90
2022-09-12T18:21:23.665Z,99.90
2022-09-12T18:24:03.770Z,99.90
2022-09-12T18:26:33.870Z,99.90
2022-09-12T18:29:03.030Z,99.90
2022-09-12T18:31:30.302Z,99.90
2022-09-12T18:33:59.598Z,99.90
2022-09-12T18:36:26.964Z,99.90
2022-09-12T18:38:54.029Z,99.90
2022-09-12T18:41:23.934Z,99.90
2022-09-12T18:44:18.915Z,99.90
2022-09-12T18:46:50.629Z,99.90
2022-09-12T18:49:18.405Z,99.90
2022-09-12T18:51:48.289Z,99.90
2022-09-12T18:54:16.900Z,99.90
2022-09-12T18:56:45.028Z,99.90
2022-09-12T18:59:13.607Z,99.90
2022-09-12T19:01:42.245Z,99.90
2022-09-12T19:04:12.618Z,99.90
2022-09-12T19:06:44.546Z,99.90
2022-09-12T19:09:18.107Z,99.90
2022-09-12T19:11:55.685Z,99.90
2022-09-12T19:14:24.164Z,99.90
2022-09-12T19:16:51.476Z,99.90
2022-09-12T19:19:18.909Z,99.90
2022-09-12T19:21:48.174Z,99.90
2022-09-12T19:24:17.218Z,99.90
2022-09-12T19:26:47.777Z,99.90
2022-09-12T19:29:16.926Z,99.90
2022-09-12T19:31:43.936Z,99.90
2022-09-12T19:34:15.411Z,99.90
2022-09-12T19:37:07.240Z,99.90
2022-09-12T19:39:37.274Z,99.90
2022-09-12T19:43:18.833Z,99.90
2022-09-12T19:45:49.286Z,99.90
2022-09-12T19:48:20.091Z,99.90
2022-09-12T19:51:01.123Z,99.90
2022-09-12T19:53:28.607Z,99.90
2022-09-12T19:58:55.330Z,99.90
2022-09-12T20:01:43.114Z,99.90
2022-09-12T20:04:11.122Z,99.90
2022-09-12T20:06:44.342Z,99.90
2022-09-12T20:09:14.427Z,99.90
2022-09-12T20:12:02.220Z,99.90
2022-09-12T20:14:29.835Z,99.90
2022-09-12T20:16:56.519Z,99.90
2022-09-12T20:19:30.624Z,99.90
2022-09-12T20:21:59.831Z,99.90
2022-09-12T20:24:26.923Z,99.90
2022-09-12T20:27:02.139Z,99.90
2022-09-12T20:29:29.106Z,99.90
2022-09-12T20:32:12.332Z,99.90
2022-09-12T20:34:40.616Z,99.90
2022-09-12T20:37:12.718Z,99.90
2022-09-12T20:40:00.006Z,99.90
2022-09-12T20:42:28.607Z,99.90
2022-09-12T20:44:55.746Z,99.90
2022-09-12T20:47:22.452Z,99.90
2022-09-12T20:49:53.048Z,99.90
2022-09-12T20:52:20.791Z,99.90
2022-09-12T20:54:47.632Z,99.90
2022-09-12T20:57:17.176Z,99.90
2022-09-12T20:59:51.101Z,99.90
2022-09-12T21:02:20.114Z,99.90
2022-09-12T21:04:46.893Z,99.90
2022-09-12T21:07:13.683Z,99.90
2022-09-12T21:09:43.930Z,99.90
2022-09-12T21:12:14.056Z,99.90
2022-09-12T21:14:40.664Z,99.90
2022-09-12T21:17:09.921Z,99.90
2022-09-12T21:19:38.811Z,99.90
2022-09-12T21:22:05.975Z,99.90
2022-09-12T21:24:33.612Z,99.90
2022-09-12T21:27:04.476Z,99.90
2022-09-12T21:29:37.681Z,99.90
2022-09-12T21:35:18.124Z,99.90
2022-09-12T21:43:40.893Z,99.90
2022-09-12T21:46:09.429Z,99.90
2022-09-12T21:48:37.484Z,99.90
2022-09-12T21:51:05.380Z,99.90
2022-09-12T21:53:32.669Z,99.90
2022-09-12T21:56:17.592Z,99.90
2022-09-12T21:58:53.543Z,99.90
2022-09-12T22:01:44.957Z,99.90
2022-09-12T22:04:14.494Z,99.90
2022-09-12T22:06:41.208Z,99.90
2022-09-12T22:09:09.117Z,99.90
2022-09-12T22:11:38.163Z,99.90
2022-09-12T22:14:11.019Z,99.90
2022-09-12T22:16:46.235Z,99.90
2022-09-12T22:19:20.165Z,99.90
2022-09-12T22:22:05.304Z,99.90
2022-09-12T22:25:02.974Z,99.90
2022-09-12T22:27:41.132Z,99.90
2022-09-12T22:30:08.347Z,99.90
2022-09-12T22:32:37.391Z,99.90
2022-09-12T22:35:06.050Z,99.90
2022-09-12T22:37:35.214Z,99.90
2022-09-12T22:40:02.205Z,99.90
2022-09-12T22:42:31.258Z,99.90
2022-09-12T22:44:57.998Z,99.90
2022-09-12T22:47:24.610Z,99.90
2022-09-12T22:49:51.553Z,99.90
2022-09-12T22:52:25.715Z,99.90
2022-09-12T22:55:11.159Z,99.90
2022-09-12T22:57:39.089Z,99.90
2022-09-12T23:00:12.177Z,99.90
2022-09-12T23:02:47.006Z,99.90
2022-09-12T23:05:13.751Z,99.90
2022-09-12T23:07:42.987Z,99.90
2022-09-12T23:10:16.259Z,99.90
2022-09-12T23:21:24.674Z,99.90
2022-09-12T23:23:51.852Z,99.90
2022-09-12T23:26:27.478Z,99.90
2022-09-12T23:28:57.741Z,99.90
2022-09-12T23:31:30.327Z,99.90
2022-09-12T23:34:01.163Z,99.90
2022-09-12T23:36:55.723Z,99.90
2022-09-12T23:39:22.770Z,99.90
2022-09-12T23:41:50.053Z,99.90
2022-09-12T23:44:23.139Z,99.90
2022-09-12T23:47:14.713Z,99.90
2022-09-12T23:49:44.685Z,99.90
2022-09-12T23:52:11.859Z,99.90
2022-09-12T23:54:38.610Z,99.90
2022-09-12T23:57:06.271Z,99.90
2022-09-12T23:59:36.963Z,99.90
